createdAt,value
2023-02-23T00:01:55.030Z,191.38
2023-02-23T00:04:23.623Z,190.00
2023-02-23T00:06:54.070Z,188.88
2023-02-23T00:09:35.102Z,196.27
2023-02-23T00:12:07.730Z,193.38
2023-02-23T00:14:37.666Z,190.43
2023-02-23T00:17:10.688Z,182.52
2023-02-23T00:19:37.827Z,187.43
2023-02-23T00:22:04.858Z,198.38
2023-02-23T00:24:31.590Z,181.45
2023-02-23T00:26:58.637Z,198.13
2023-02-23T00:29:25.407Z,198.60
2023-02-23T00:31:52.591Z,200.93
2023-02-23T00:34:23.997Z,202.55
2023-02-23T00:36:55.548Z,193.20
2023-02-23T00:39:25.202Z,202.82
2023-02-23T00:41:53.314Z,204.15
2023-02-23T00:44:21.868Z,214.35
2023-02-23T00:46:51.458Z,204.32
2023-02-23T00:49:20.282Z,210.55
2023-02-23T00:51:47.317Z,206.88
2023-02-23T00:54:18.299Z,218.02
2023-02-23T00:56:46.112Z,214.25
2023-02-23T00:59:14.534Z,207.35
2023-02-23T01:01:42.478Z,203.05
2023-02-23T01:04:13.063Z,209.45
2023-02-23T01:06:41.081Z,201.95
2023-02-23T01:09:11.138Z,200.90
2023-02-23T01:11:37.949Z,202.27
2023-02-23T01:14:05.205Z,197.50
2023-02-23T01:16:34.133Z,200.93
2023-02-23T01:19:05.017Z,202.98
2023-02-23T01:21:37.891Z,213.45
2023-02-23T01:24:06.678Z,203.02
2023-02-23T01:26:36.233Z,205.80
2023-02-23T01:29:08.720Z,209.90
2023-02-23T01:31:36.912Z,194.73
2023-02-23T01:34:05.905Z,198.00
2023-02-23T01:36:38.942Z,193.75
2023-02-23T01:39:07.956Z,209.23
2023-02-23T01:41:36.715Z,198.73
2023-02-23T01:44:08.045Z,202.25
2023-02-23T01:46:40.796Z,142.90
2023-02-23T01:49:15.471Z,192.77
2023-02-23T01:51:52.555Z,192.55
2023-02-23T01:54:24.559Z,182.73
2023-02-23T01:56:58.459Z,195.32
2023-02-23T01:59:38.090Z,188.82
2023-02-23T02:02:07.973Z,190.30
2023-02-23T02:04:44.200Z,193.13
2023-02-23T02:07:18.047Z,189.48
2023-02-23T02:10:06.184Z,185.52
2023-02-23T02:12:33.898Z,188.27
2023-02-23T02:15:02.303Z,186.52
2023-02-23T02:17:46.129Z,185.60
2023-02-23T02:20:34.314Z,179.23
2023-02-23T02:23:30.928Z,175.75
2023-02-23T02:26:03.688Z,171.32
2023-02-23T02:28:48.980Z,179.25
2023-02-23T02:31:30.227Z,184.43
2023-02-23T02:34:09.233Z,172.43
2023-02-23T02:36:50.987Z,183.60
2023-02-23T02:39:36.542Z,177.40
2023-02-23T02:42:31.731Z,177.10
2023-02-23T02:45:07.756Z,173.02
2023-02-23T02:47:38.821Z,168.80
2023-02-23T02:50:21.215Z,170.68
2023-02-23T02:55:29.017Z,162.38
2023-02-23T02:58:02.277Z,170.88
2023-02-23T03:00:59.315Z,162.32
2023-02-23T03:03:55.077Z,171.55
2023-02-23T03:06:52.035Z,171.30
2023-02-23T03:10:07.906Z,167.90
2023-02-23T03:13:00.530Z,165.45
2023-02-23T03:18:54.043Z,158.05
2023-02-23T03:21:50.295Z,162.18
2023-02-23T03:24:47.723Z,152.50
2023-02-23T03:27:45.068Z,156.85
2023-02-23T03:30:53.302Z,147.75
2023-02-23T03:33:57.244Z,147.52
2023-02-23T03:36:46.137Z,155.25
2023-02-23T03:39:40.487Z,151.57
2023-02-23T03:42:31.450Z,161.32
2023-02-23T03:45:20.282Z,157.07
2023-02-23T03:48:06.538Z,153.23
2023-02-23T03:51:05.627Z,152.23
2023-02-23T03:54:09.016Z,161.15
2023-02-23T03:56:58.949Z,152.68
2023-02-23T03:59:49.326Z,152.75
2023-02-23T04:02:37.834Z,147.35
2023-02-23T04:05:29.729Z,156.98
2023-02-23T04:08:17.353Z,159.00
2023-02-23T04:11:15.037Z,147.98
2023-02-23T04:13:44.722Z,158.13
2023-02-23T04:16:12.133Z,156.85
2023-02-23T04:18:39.972Z,164.20
2023-02-23T04:21:07.780Z,154.27
2023-02-23T04:23:36.771Z,153.40
2023-02-23T04:26:05.128Z,168.73
2023-02-23T04:28:31.910Z,169.27
2023-02-23T04:30:58.696Z,161.77
2023-02-23T04:33:25.554Z,152.40
2023-02-23T04:35:54.264Z,156.65
2023-02-23T04:38:22.276Z,154.77
2023-02-23T04:40:49.230Z,167.73
2023-02-23T04:43:16.173Z,157.93
2023-02-23T04:45:43.896Z,148.15
2023-02-23T04:48:10.717Z,155.32
2023-02-23T04:50:37.626Z,162.88
2023-02-23T04:53:04.441Z,152.25
2023-02-23T04:55:32.773Z,161.50
2023-02-23T04:58:01.253Z,163.05
2023-02-23T05:00:29.549Z,157.82
2023-02-23T05:02:57.972Z,158.95
2023-02-23T05:05:25.085Z,161.02
2023-02-23T05:07:52.006Z,158.70
2023-02-23T05:10:18.836Z,155.45
2023-02-23T05:12:46.901Z,164.80
2023-02-23T05:15:13.801Z,161.48
2023-02-23T05:17:42.051Z,164.18
2023-02-23T05:20:10.863Z,166.25
2023-02-23T05:22:37.759Z,161.77
2023-02-23T05:25:05.636Z,170.15
2023-02-23T05:27:32.776Z,156.35
2023-02-23T05:29:59.574Z,158.23
2023-02-23T05:32:26.424Z,165.88
2023-02-23T05:34:53.496Z,156.88
2023-02-23T05:37:20.338Z,169.10
2023-02-23T05:39:48.046Z,155.55
2023-02-23T05:42:14.929Z,157.80
2023-02-23T05:44:41.715Z,155.98
2023-02-23T05:47:08.679Z,160.30
2023-02-23T05:49:35.516Z,154.20
2023-02-23T05:52:02.313Z,142.90
2023-02-23T05:54:29.243Z,149.57
2023-02-23T05:56:56.000Z,155.20
2023-02-23T05:59:22.847Z,156.25
2023-02-23T06:01:49.631Z,163.55
2023-02-23T06:04:17.329Z,151.73
2023-02-23T06:06:44.276Z,156.02
2023-02-23T06:09:11.139Z,153.38
2023-02-23T06:11:37.895Z,157.05
2023-02-23T06:14:04.696Z,162.40
2023-02-23T06:16:31.993Z,154.98
2023-02-23T06:18:59.080Z,156.90
2023-02-23T06:21:26.238Z,163.75
2023-02-23T06:23:53.434Z,161.52
2023-02-23T06:26:20.609Z,159.65
2023-02-23T06:28:47.576Z,164.45
2023-02-23T06:31:14.403Z,162.73
2023-02-23T06:33:41.187Z,152.07
2023-02-23T06:36:08.323Z,158.82
2023-02-23T06:38:35.093Z,154.80
2023-02-23T06:41:07.896Z,155.68
2023-02-23T06:43:34.672Z,152.60
2023-02-23T06:46:01.457Z,151.68
2023-02-23T06:48:28.274Z,150.98
2023-02-23T06:50:55.011Z,153.00
2023-02-23T06:53:23.170Z,168.13
2023-02-23T06:55:50.057Z,152.23
2023-02-23T06:58:17.700Z,156.85
2023-02-23T07:00:44.472Z,164.07
2023-02-23T07:03:11.292Z,163.80
2023-02-23T07:05:38.392Z,177.05
2023-02-23T07:08:05.497Z,175.50
2023-02-23T07:10:33.054Z,172.60
2023-02-23T07:13:00.632Z,178.52
2023-02-23T07:15:27.590Z,175.88
2023-02-23T07:17:54.672Z,171.55
2023-02-23T07:20:21.453Z,176.13
2023-02-23T07:22:48.255Z,174.73
2023-02-23T07:25:15.133Z,179.95
2023-02-23T07:27:42.301Z,161.82
2023-02-23T07:30:10.693Z,176.77
2023-02-23T07:32:37.535Z,199.48
2023-02-23T07:35:05.548Z,165.13
2023-02-23T07:37:32.602Z,167.07
2023-02-23T07:40:01.167Z,166.25
2023-02-23T07:42:28.672Z,165.45
2023-02-23T07:44:56.216Z,180.13
2023-02-23T07:47:30.273Z,173.85
2023-02-23T07:50:03.455Z,175.27
2023-02-23T07:52:30.230Z,179.32
2023-02-23T07:54:57.741Z,172.77
2023-02-23T07:57:25.145Z,174.30
2023-02-23T07:59:51.947Z,187.90
2023-02-23T08:02:18.747Z,171.18
2023-02-23T08:04:45.545Z,169.98
2023-02-23T08:07:12.311Z,168.18
2023-02-23T08:09:39.097Z,167.63
2023-02-23T08:12:06.468Z,175.57
2023-02-23T08:14:33.317Z,176.88
2023-02-23T08:17:01.600Z,173.48
2023-02-23T08:19:28.874Z,178.63
2023-02-23T08:21:56.868Z,169.20
2023-02-23T08:24:23.771Z,174.98
2023-02-23T08:26:50.516Z,174.63
2023-02-23T08:29:17.313Z,173.18
2023-02-23T08:31:44.794Z,169.35
2023-02-23T08:34:11.880Z,176.55
2023-02-23T08:36:39.583Z,163.40
2023-02-23T08:39:07.758Z,160.73
2023-02-23T08:41:35.130Z,167.70
2023-02-23T08:44:01.868Z,159.65
2023-02-23T08:46:28.654Z,162.43
2023-02-23T08:48:56.678Z,170.57
2023-02-23T08:51:24.116Z,163.15
2023-02-23T08:53:51.026Z,158.00
2023-02-23T08:56:17.840Z,161.88
2023-02-23T08:58:44.689Z,164.45
2023-02-23T09:01:20.178Z,175.85
2023-02-23T09:03:47.450Z,174.55
2023-02-23T09:06:19.978Z,163.95
2023-02-23T09:08:47.010Z,167.20
2023-02-23T09:11:13.817Z,165.13
2023-02-23T09:13:40.643Z,172.40
2023-02-23T09:16:10.420Z,167.77
2023-02-23T09:18:38.298Z,173.55
2023-02-23T09:21:07.480Z,175.30
2023-02-23T09:23:37.883Z,163.38
2023-02-23T09:26:08.929Z,168.50
2023-02-23T09:28:36.449Z,168.35
2023-02-23T09:31:08.669Z,162.77
2023-02-23T09:33:36.034Z,167.55
2023-02-23T09:36:12.820Z,159.18
2023-02-23T09:38:40.294Z,167.57
2023-02-23T09:41:37.470Z,177.50
2023-02-23T09:44:22.103Z,164.48
2023-02-23T09:47:11.567Z,159.23
2023-02-23T09:49:42.366Z,164.32
2023-02-23T09:52:19.043Z,168.30
2023-02-23T09:54:47.109Z,163.52
2023-02-23T09:57:38.070Z,169.23
2023-02-23T10:00:27.948Z,179.25
2023-02-23T10:03:04.371Z,158.60
2023-02-23T10:05:38.301Z,167.07
2023-02-23T10:08:29.448Z,162.73
2023-02-23T10:11:11.080Z,165.68
2023-02-23T10:14:02.050Z,165.75
2023-02-23T10:16:49.760Z,162.98
2023-02-23T10:19:42.909Z,159.85
2023-02-23T10:22:12.309Z,156.90
2023-02-23T10:25:00.384Z,168.25
2023-02-23T10:27:37.630Z,172.27
2023-02-23T10:30:21.692Z,167.43
2023-02-23T10:32:55.436Z,171.55
2023-02-23T10:35:23.446Z,164.80
2023-02-23T10:37:52.767Z,177.05
2023-02-23T10:40:24.355Z,164.82
2023-02-23T10:42:52.913Z,162.80
2023-02-23T10:45:25.724Z,161.55
2023-02-23T10:48:06.912Z,161.52
2023-02-23T10:50:38.744Z,160.32
2023-02-23T10:53:32.801Z,152.70
2023-02-23T10:56:15.697Z,149.10
2023-02-23T10:58:55.280Z,153.68
2023-02-23T11:01:49.105Z,156.35
2023-02-23T11:04:32.336Z,154.95
2023-02-23T11:07:18.549Z,154.90
2023-02-23T11:09:47.748Z,152.68
2023-02-23T11:12:22.863Z,158.48
2023-02-23T11:14:52.045Z,162.20
2023-02-23T11:17:38.209Z,155.93
2023-02-23T11:20:29.155Z,149.40
2023-02-23T11:23:03.592Z,142.90
2023-02-23T11:25:37.619Z,154.25
2023-02-23T11:28:05.645Z,152.98
2023-02-23T11:30:38.279Z,147.15
2023-02-23T11:33:11.967Z,148.25
2023-02-23T11:35:39.066Z,145.93
2023-02-23T11:38:21.642Z,145.90
2023-02-23T11:41:01.854Z,147.05
2023-02-23T11:43:29.092Z,134.43
2023-02-23T11:45:58.588Z,142.70
2023-02-23T11:48:33.599Z,141.23
2023-02-23T11:51:01.353Z,140.38
2023-02-23T11:53:40.516Z,143.40
2023-02-23T11:56:11.112Z,143.75
2023-02-23T11:59:08.881Z,136.95
2023-02-23T12:01:51.224Z,146.05
2023-02-23T12:04:40.305Z,135.25
2023-02-23T12:07:31.431Z,142.70
2023-02-23T12:10:06.583Z,151.73
2023-02-23T12:12:50.456Z,143.68
2023-02-23T12:15:43.763Z,144.80
2023-02-23T12:18:32.619Z,149.88
2023-02-23T12:21:13.390Z,154.80
2023-02-23T12:23:43.171Z,145.45
2023-02-23T12:26:18.867Z,155.55
2023-02-23T12:28:53.746Z,147.73
2023-02-23T12:31:28.414Z,153.18
2023-02-23T12:34:10.781Z,157.55
2023-02-23T12:36:43.569Z,148.48
2023-02-23T12:39:21.196Z,147.02
2023-02-23T12:41:57.144Z,147.27
2023-02-23T12:44:49.702Z,150.18
2023-02-23T12:47:41.630Z,154.43
2023-02-23T12:50:23.429Z,150.00
2023-02-23T12:52:54.908Z,148.15
2023-02-23T12:55:41.557Z,148.45
2023-02-23T12:58:35.603Z,151.23
2023-02-23T13:01:18.690Z,163.05
2023-02-23T13:03:56.856Z,153.38
2023-02-23T13:06:50.071Z,154.50
2023-02-23T13:09:24.399Z,146.93
2023-02-23T13:12:07.743Z,141.68
2023-02-23T13:14:34.522Z,155.02
2023-02-23T13:17:22.427Z,139.45
2023-02-23T13:19:56.337Z,148.95
2023-02-23T13:22:33.604Z,151.30
2023-02-23T13:25:05.309Z,141.55
2023-02-23T13:27:43.879Z,148.25
2023-02-23T13:30:12.030Z,152.95
2023-02-23T13:32:39.561Z,141.70
2023-02-23T13:35:13.356Z,143.50
2023-02-23T13:37:55.500Z,146.82
2023-02-23T13:43:01.151Z,150.20
2023-02-23T13:45:31.433Z,147.02
2023-02-23T13:48:32.422Z,144.35
2023-02-23T13:51:20.741Z,154.57
2023-02-23T13:54:02.392Z,147.23
2023-02-23T13:56:32.038Z,158.90
2023-02-23T13:59:08.348Z,143.10
2023-02-23T14:01:40.762Z,153.82
2023-02-23T14:04:16.049Z,147.48
2023-02-23T14:06:56.854Z,140.25
2023-02-23T14:09:30.573Z,144.57
2023-02-23T14:12:40.174Z,142.88
2023-02-23T14:15:25.458Z,143.60
2023-02-23T14:17:57.033Z,142.30
2023-02-23T14:20:39.145Z,140.57
2023-02-23T14:23:21.168Z,137.07
2023-02-23T14:25:51.171Z,142.50
2023-02-23T14:28:35.304Z,147.95
2023-02-23T14:31:11.400Z,137.80
2023-02-23T14:33:48.563Z,133.77
2023-02-23T14:36:21.490Z,136.68
2023-02-23T14:39:01.296Z,139.38
2023-02-23T14:41:47.005Z,138.27
2023-02-23T14:44:30.816Z,133.30
2023-02-23T14:47:02.847Z,145.93
2023-02-23T14:49:35.579Z,153.65
2023-02-23T14:52:14.844Z,139.98
2023-02-23T14:54:41.624Z,147.77
2023-02-23T14:57:22.513Z,140.43
2023-02-23T15:00:12.186Z,143.02
2023-02-23T15:02:53.709Z,132.23
2023-02-23T15:05:24.949Z,149.85
2023-02-23T15:07:54.025Z,148.23
2023-02-23T15:10:37.192Z,143.82
2023-02-23T15:13:28.968Z,153.93
2023-02-23T15:15:58.035Z,149.40
2023-02-23T15:18:36.581Z,140.07
2023-02-23T15:21:16.883Z,143.43
2023-02-23T15:23:50.976Z,139.05
2023-02-23T15:26:39.318Z,118.18
2023-02-23T15:29:14.661Z,125.22
2023-02-23T15:31:51.136Z,140.73
2023-02-23T15:34:30.700Z,128.75
2023-02-23T15:37:03.455Z,132.27
2023-02-23T15:39:48.429Z,120.82
2023-02-23T15:42:18.463Z,135.90
2023-02-23T15:44:45.833Z,127.78
2023-02-23T15:47:22.119Z,133.50
2023-02-23T15:49:50.350Z,125.57
2023-02-23T15:52:22.519Z,131.45
2023-02-23T15:57:29.647Z,126.13
2023-02-23T16:00:02.445Z,134.07
2023-02-23T16:02:30.277Z,130.57
2023-02-23T16:05:06.271Z,126.03
2023-02-23T16:07:43.363Z,136.25
2023-02-23T16:10:23.767Z,138.07
2023-02-23T16:12:53.280Z,141.25
2023-02-23T16:15:35.522Z,134.85
2023-02-23T16:20:38.574Z,138.13
2023-02-23T16:23:06.670Z,143.43
2023-02-23T16:25:34.825Z,144.70
2023-02-23T16:28:07.618Z,141.18
2023-02-23T16:30:43.881Z,148.80
2023-02-23T16:33:21.736Z,153.27
2023-02-23T16:35:51.675Z,153.90
2023-02-23T16:38:37.808Z,156.80
2023-02-23T16:41:05.969Z,159.00
2023-02-23T16:43:35.200Z,158.15
2023-02-23T16:46:02.628Z,164.32
2023-02-23T16:48:30.401Z,165.00
2023-02-23T16:50:57.638Z,163.98
2023-02-23T16:53:25.341Z,174.68
2023-02-23T16:56:00.982Z,180.27
2023-02-23T16:58:30.724Z,153.80
2023-02-23T17:00:57.604Z,170.90
2023-02-23T17:03:31.377Z,156.75
2023-02-23T17:05:59.482Z,170.48
2023-02-23T17:08:26.404Z,164.73
2023-02-23T17:10:55.434Z,177.20
2023-02-23T17:13:24.995Z,171.20
2023-02-23T17:15:56.209Z,163.60
2023-02-23T17:18:28.811Z,164.97
2023-02-23T17:20:57.741Z,152.77
2023-02-23T17:23:27.101Z,166.55
2023-02-23T17:25:58.548Z,177.30
2023-02-23T17:28:25.895Z,173.00
2023-02-23T17:30:54.292Z,177.10
2023-02-23T17:33:21.191Z,173.80
2023-02-23T17:35:48.079Z,168.73
2023-02-23T17:38:15.119Z,175.00
2023-02-23T17:40:42.037Z,174.13
2023-02-23T17:43:10.969Z,179.05
2023-02-23T17:45:39.604Z,185.13
2023-02-23T17:48:06.388Z,192.13
2023-02-23T17:50:33.305Z,187.43
2023-02-23T17:53:00.128Z,196.18
2023-02-23T17:55:27.517Z,188.30
2023-02-23T17:57:54.308Z,188.40
2023-02-23T18:00:21.372Z,213.38
2023-02-23T18:02:48.326Z,184.90
2023-02-23T18:05:15.971Z,183.57
2023-02-23T18:07:43.142Z,170.88
2023-02-23T18:10:11.188Z,172.70
2023-02-23T18:12:38.270Z,184.10
2023-02-23T18:15:05.587Z,177.65
2023-02-23T18:17:33.769Z,173.32
2023-02-23T18:20:01.088Z,170.30
2023-02-23T18:22:27.905Z,168.32
2023-02-23T18:24:56.576Z,177.68
2023-02-23T18:27:24.530Z,182.02
2023-02-23T18:29:51.293Z,195.50
2023-02-23T18:32:18.274Z,173.52
2023-02-23T18:34:45.246Z,177.45
2023-02-23T18:37:12.251Z,164.10
2023-02-23T18:39:39.126Z,172.88
2023-02-23T18:42:06.073Z,169.93
2023-02-23T18:44:35.116Z,167.85
2023-02-23T18:47:02.485Z,172.77
2023-02-23T18:49:29.343Z,166.00
2023-02-23T18:51:56.599Z,178.13
2023-02-23T18:54:26.694Z,170.95
2023-02-23T18:56:55.290Z,174.73
2023-02-23T18:59:22.141Z,173.70
2023-02-23T19:01:49.112Z,173.48
2023-02-23T19:04:16.078Z,177.02
2023-02-23T19:06:45.436Z,175.98
2023-02-23T19:09:14.683Z,186.48
2023-02-23T19:11:43.223Z,178.98
2023-02-23T19:14:18.253Z,173.98
2023-02-23T19:16:46.791Z,168.02
2023-02-23T19:19:14.463Z,173.40
2023-02-23T19:21:41.536Z,166.23
2023-02-23T19:24:08.872Z,174.30
2023-02-23T19:26:37.452Z,178.73
2023-02-23T19:29:04.701Z,172.25
2023-02-23T19:31:31.847Z,179.48
2023-02-23T19:33:59.829Z,171.93
2023-02-23T19:36:31.897Z,171.25
2023-02-23T19:39:06.183Z,167.43
2023-02-23T19:41:34.287Z,174.88
2023-02-23T19:44:01.559Z,175.65
2023-02-23T19:46:29.054Z,175.32
2023-02-23T19:48:56.300Z,185.45
2023-02-23T19:51:23.997Z,191.27
2023-02-23T19:53:54.527Z,162.55
2023-02-23T19:56:24.606Z,173.68
2023-02-23T19:58:52.247Z,184.82
2023-02-23T20:01:21.615Z,185.30
2023-02-23T20:03:55.572Z,177.02
2023-02-23T20:06:27.744Z,179.85
2023-02-23T20:08:55.373Z,181.82
2023-02-23T20:11:23.449Z,166.45
2023-02-23T20:13:53.170Z,173.82
2023-02-23T20:16:20.422Z,170.88
2023-02-23T20:18:47.647Z,175.20
2023-02-23T20:21:18.724Z,162.45
2023-02-23T20:23:47.023Z,178.95
2023-02-23T20:26:20.079Z,165.00
2023-02-23T20:28:47.200Z,157.95
2023-02-23T20:31:17.161Z,173.52
2023-02-23T20:33:44.159Z,181.88
2023-02-23T20:36:12.183Z,163.70
2023-02-23T20:38:39.387Z,160.93
2023-02-23T20:41:06.461Z,161.32
2023-02-23T20:43:33.262Z,148.20
2023-02-23T20:46:00.981Z,158.68
2023-02-23T20:48:29.434Z,153.63
2023-02-23T20:50:57.061Z,168.90
2023-02-23T20:53:25.316Z,164.73
2023-02-23T20:55:52.880Z,146.18
2023-02-23T20:58:25.512Z,155.18
2023-02-23T21:01:20.374Z,136.40
2023-02-23T21:03:47.830Z,134.73
2023-02-23T21:06:16.114Z,127.68
2023-02-23T21:08:42.950Z,140.38
2023-02-23T21:11:09.759Z,133.55
2023-02-23T21:13:37.033Z,133.73
2023-02-23T21:16:04.156Z,131.32
2023-02-23T21:18:31.747Z,118.28
2023-02-23T21:21:06.460Z,109.63
2023-02-23T21:23:33.392Z,111.55
2023-02-23T21:26:07.112Z,116.80
2023-02-23T21:28:35.458Z,107.15
2023-02-23T21:31:02.338Z,105.45
2023-02-23T21:33:29.215Z,109.30
2023-02-23T21:35:58.930Z,102.30
2023-02-23T21:38:26.406Z,100.68
2023-02-23T21:40:53.352Z,100.95
2023-02-23T21:43:20.177Z,108.20
2023-02-23T21:45:46.958Z,101.60
2023-02-23T21:48:14.269Z,95.07
2023-02-23T21:50:41.477Z,94.68
2023-02-23T21:53:09.695Z,92.65
2023-02-23T21:55:41.315Z,88.13
2023-02-23T21:58:08.227Z,95.85
2023-02-23T22:00:35.861Z,93.63
2023-02-23T22:03:03.616Z,97.82
2023-02-23T22:05:30.446Z,90.93
2023-02-23T22:07:57.186Z,92.93
2023-02-23T22:10:24.859Z,100.85
2023-02-23T22:12:56.264Z,104.38
2023-02-23T22:15:27.763Z,93.70
2023-02-23T22:17:55.806Z,77.97
2023-02-23T22:20:22.774Z,90.53
2023-02-23T22:22:52.494Z,104.35
2023-02-23T22:25:20.292Z,110.55
2023-02-23T22:27:47.343Z,110.35
2023-02-23T22:30:15.247Z,105.75
2023-02-23T22:32:42.802Z,103.25
2023-02-23T22:35:10.522Z,102.13
2023-02-23T22:37:38.674Z,111.55
2023-02-23T22:40:13.653Z,111.15
2023-02-23T22:42:43.507Z,121.03
2023-02-23T22:45:11.032Z,128.13
2023-02-23T22:47:38.934Z,119.53
2023-02-23T22:50:07.037Z,127.85
2023-02-23T22:52:34.719Z,136.20
2023-02-23T22:55:03.197Z,142.25
2023-02-23T22:57:30.058Z,138.90
2023-02-23T23:00:00.602Z,143.48
2023-02-23T23:02:32.173Z,147.02
2023-02-23T23:05:01.847Z,138.27
2023-02-23T23:07:30.988Z,140.35
2023-02-23T23:10:02.916Z,132.68
2023-02-23T23:12:29.863Z,146.88
2023-02-23T23:15:01.222Z,139.00
2023-02-23T23:17:29.660Z,151.20
2023-02-23T23:19:57.494Z,154.35
2023-02-23T23:22:25.307Z,142.52
2023-02-23T23:24:52.721Z,144.90
2023-02-23T23:27:21.186Z,150.05
2023-02-23T23:29:48.725Z,146.63
2023-02-23T23:32:17.644Z,147.55
2023-02-23T23:34:49.233Z,151.18
2023-02-23T23:37:17.656Z,149.63
2023-02-23T23:39:45.036Z,148.77
2023-02-23T23:42:12.797Z,157.55
2023-02-23T23:44:39.651Z,157.45
2023-02-23T23:47:06.878Z,166.77
2023-02-23T23:49:38.466Z,174.70
2023-02-23T23:52:05.930Z,177.95
2023-02-23T23:54:39.028Z,166.13
2023-02-23T23:57:06.874Z,155.77
2023-02-23T23:59:34.896Z,152.43
